sensor_id;sensor_type;location;lat;lon;timestamp;P1;durP1;ratioP1;P2;durP2;ratioP2
69323;SDS011;56470;47.350;8.718;2022-10-17T00:00:47;5.70;;;2.05;;
69323;SDS011;56470;47.350;8.718;2022-10-17T00:03:13;5.87;;;2.30;;
69323;SDS011;56470;47.350;8.718;2022-10-17T00:05:39;3.73;;;1.60;;
69323;SDS011;56470;47.350;8.718;2022-10-17T00:08:05;5.43;;;2.00;;
69323;SDS011;56470;47.350;8.718;2022-10-17T00:10:31;3.47;;;1.77;;
69323;SDS011;56470;47.350;8.718;2022-10-17T00:12:56;6.20;;;1.97;;
69323;SDS011;56470;47.350;8.718;2022-10-17T00:15:21;5.13;;;2.33;;
69323;SDS011;56470;47.350;8.718;2022-10-17T00:17:47;7.53;;;2.83;;
69323;SDS011;56470;47.350;8.718;2022-10-17T00:20:12;4.77;;;2.00;;
69323;SDS011;56470;47.350;8.718;2022-10-17T00:22:38;6.35;;;1.65;;
69323;SDS011;56470;47.350;8.718;2022-10-17T00:25:04;4.40;;;1.93;;
69323;SDS011;56470;47.350;8.718;2022-10-17T00:27:29;6.80;;;2.33;;
69323;SDS011;56470;47.350;8.718;2022-10-17T00:29:58;5.55;;;1.85;;
69323;SDS011;56470;47.350;8.718;2022-10-17T00:32:23;4.10;;;2.07;;
69323;SDS011;56470;47.350;8.718;2022-10-17T00:34:48;4.33;;;1.80;;
69323;SDS011;56470;47.350;8.718;2022-10-17T00:37:14;5.73;;;2.07;;
69323;SDS011;56470;47.350;8.718;2022-10-17T00:39:39;7.07;;;1.87;;
69323;SDS011;56470;47.350;8.718;2022-10-17T00:42:04;4.00;;;1.77;;
69323;SDS011;56470;47.350;8.718;2022-10-17T00:46:56;5.57;;;1.77;;
69323;SDS011;56470;47.350;8.718;2022-10-17T00:49:22;6.97;;;2.15;;
69323;SDS011;56470;47.350;8.718;2022-10-17T00:51:57;5.60;;;1.60;;
69323;SDS011;56470;47.350;8.718;2022-10-17T00:54:26;3.55;;;1.55;;
69323;SDS011;56470;47.350;8.718;2022-10-17T00:56:58;4.78;;;1.60;;
69323;SDS011;56470;47.350;8.718;2022-10-17T00:59:24;5.43;;;1.80;;
69323;SDS011;56470;47.350;8.718;2022-10-17T01:01:51;6.35;;;2.00;;
69323;SDS011;56470;47.350;8.718;2022-10-17T01:04:23;5.57;;;1.60;;
69323;SDS011;56470;47.350;8.718;2022-10-17T01:06:49;8.40;;;1.77;;
69323;SDS011;56470;47.350;8.718;2022-10-17T01:09:14;4.83;;;1.70;;
69323;SDS011;56470;47.350;8.718;2022-10-17T01:11:50;4.50;;;2.00;;
69323;SDS011;56470;47.350;8.718;2022-10-17T01:14:27;4.22;;;1.63;;
69323;SDS011;56470;47.350;8.718;2022-10-17T01:33:13;5.37;;;1.90;;
69323;SDS011;56470;47.350;8.718;2022-10-17T01:35:51;8.32;;;1.70;;
69323;SDS011;56470;47.350;8.718;2022-10-17T01:38:24;4.20;;;1.70;;
69323;SDS011;56470;47.350;8.718;2022-10-17T01:44:11;3.65;;;1.92;;
69323;SDS011;56470;47.350;8.718;2022-10-17T01:46:36;6.03;;;2.00;;
69323;SDS011;56470;47.350;8.718;2022-10-17T01:49:04;3.80;;;2.03;;
69323;SDS011;56470;47.350;8.718;2022-10-17T01:51:35;6.45;;;2.53;;
69323;SDS011;56470;47.350;8.718;2022-10-17T01:54:12;7.88;;;2.25;;
69323;SDS011;56470;47.350;8.718;2022-10-17T01:56:42;7.18;;;2.35;;
69323;SDS011;56470;47.350;8.718;2022-10-17T01:59:11;3.93;;;1.60;;
69323;SDS011;56470;47.350;8.718;2022-10-17T02:01:40;5.30;;;1.70;;
69323;SDS011;56470;47.350;8.718;2022-10-17T02:04:07;5.85;;;2.13;;
69323;SDS011;56470;47.350;8.718;2022-10-17T02:06:35;3.63;;;2.40;;
69323;SDS011;56470;47.350;8.718;2022-10-17T02:09:13;6.15;;;1.80;;
69323;SDS011;56470;47.350;8.718;2022-10-17T02:11:49;4.67;;;2.10;;
69323;SDS011;56470;47.350;8.718;2022-10-17T02:14:40;5.55;;;2.00;;
69323;SDS011;56470;47.350;8.718;2022-10-17T02:17:43;4.32;;;1.65;;
69323;SDS011;56470;47.350;8.718;2022-10-17T02:22:43;4.07;;;2.23;;
69323;SDS011;56470;47.350;8.718;2022-10-17T02:28:08;5.63;;;2.10;;
69323;SDS011;56470;47.350;8.718;2022-10-17T02:33:48;6.40;;;2.10;;
69323;SDS011;56470;47.350;8.718;2022-10-17T02:36:20;6.07;;;2.20;;
69323;SDS011;56470;47.350;8.718;2022-10-17T02:38:49;7.93;;;1.67;;
69323;SDS011;56470;47.350;8.718;2022-10-17T02:41:15;6.43;;;1.70;;
69323;SDS011;56470;47.350;8.718;2022-10-17T02:43:44;4.40;;;1.60;;
69323;SDS011;56470;47.350;8.718;2022-10-17T02:46:14;5.07;;;1.83;;
69323;SDS011;56470;47.350;8.718;2022-10-17T02:54:36;6.28;;;2.20;;
69323;SDS011;56470;47.350;8.718;2022-10-17T02:56:50;5.83;;;2.00;;
69323;SDS011;56470;47.350;8.718;2022-10-17T02:59:24;6.03;;;2.45;;
69323;SDS011;56470;47.350;8.718;2022-10-17T03:01:51;5.45;;;1.73;;
69323;SDS011;56470;47.350;8.718;2022-10-17T03:04:16;7.45;;;2.13;;
69323;SDS011;56470;47.350;8.718;2022-10-17T03:06:43;10.07;;;1.90;;
69323;SDS011;56470;47.350;8.718;2022-10-17T03:09:10;4.60;;;1.70;;
69323;SDS011;56470;47.350;8.718;2022-10-17T03:11:35;5.68;;;2.38;;
69323;SDS011;56470;47.350;8.718;2022-10-17T03:14:01;5.73;;;1.93;;
69323;SDS011;56470;47.350;8.718;2022-10-17T03:16:26;3.93;;;2.23;;
69323;SDS011;56470;47.350;8.718;2022-10-17T03:18:52;6.60;;;1.93;;
69323;SDS011;56470;47.350;8.718;2022-10-17T03:21:17;6.17;;;1.73;;
69323;SDS011;56470;47.350;8.718;2022-10-17T03:23:42;7.93;;;1.95;;
69323;SDS011;56470;47.350;8.718;2022-10-17T03:26:08;4.20;;;2.27;;
69323;SDS011;56470;47.350;8.718;2022-10-17T03:28:33;3.77;;;1.90;;
69323;SDS011;56470;47.350;8.718;2022-10-17T03:30:59;4.47;;;1.60;;
69323;SDS011;56470;47.350;8.718;2022-10-17T03:33:30;6.72;;;2.05;;
69323;SDS011;56470;47.350;8.718;2022-10-17T03:35:55;3.80;;;1.87;;
69323;SDS011;56470;47.350;8.718;2022-10-17T03:38:20;3.27;;;1.80;;
69323;SDS011;56470;47.350;8.718;2022-10-17T03:40:53;4.60;;;1.50;;
69323;SDS011;56470;47.350;8.718;2022-10-17T03:43:19;8.90;;;2.47;;
69323;SDS011;56470;47.350;8.718;2022-10-17T03:45:44;4.57;;;1.53;;
69323;SDS011;56470;47.350;8.718;2022-10-17T03:48:09;5.33;;;1.83;;
69323;SDS011;56470;47.350;8.718;2022-10-17T03:50:34;5.10;;;2.43;;
69323;SDS011;56470;47.350;8.718;2022-10-17T03:53:00;4.35;;;1.83;;
69323;SDS011;56470;47.350;8.718;2022-10-17T03:55:25;5.07;;;2.30;;
69323;SDS011;56470;47.350;8.718;2022-10-17T03:57:50;4.70;;;2.13;;
69323;SDS011;56470;47.350;8.718;2022-10-17T04:00:16;5.37;;;2.00;;
69323;SDS011;56470;47.350;8.718;2022-10-17T04:02:41;6.77;;;1.90;;
69323;SDS011;56470;47.350;8.718;2022-10-17T04:05:06;3.83;;;2.10;;
69323;SDS011;56470;47.350;8.718;2022-10-17T04:07:32;4.22;;;2.15;;
69323;SDS011;56470;47.350;8.718;2022-10-17T04:09:57;6.00;;;2.07;;
69323;SDS011;56470;47.350;8.718;2022-10-17T04:12:23;11.33;;;2.07;;
69323;SDS011;56470;47.350;8.718;2022-10-17T04:14:48;7.00;;;1.70;;
69323;SDS011;56470;47.350;8.718;2022-10-17T04:17:13;5.10;;;1.87;;
69323;SDS011;56470;47.350;8.718;2022-10-17T04:19:38;4.63;;;2.10;;
69323;SDS011;56470;47.350;8.718;2022-10-17T04:22:04;7.78;;;1.95;;
69323;SDS011;56470;47.350;8.718;2022-10-17T04:24:32;4.37;;;2.20;;
69323;SDS011;56470;47.350;8.718;2022-10-17T04:26:57;5.85;;;2.08;;
69323;SDS011;56470;47.350;8.718;2022-10-17T04:29:23;8.20;;;2.30;;
69323;SDS011;56470;47.350;8.718;2022-10-17T04:31:49;7.43;;;2.20;;
69323;SDS011;56470;47.350;8.718;2022-10-17T04:34:16;6.10;;;2.37;;
69323;SDS011;56470;47.350;8.718;2022-10-17T04:36:41;4.65;;;2.30;;
69323;SDS011;56470;47.350;8.718;2022-10-17T04:39:07;5.97;;;2.00;;
69323;SDS011;56470;47.350;8.718;2022-10-17T04:41:32;5.77;;;2.30;;
69323;SDS011;56470;47.350;8.718;2022-10-17T04:43:57;5.47;;;2.13;;
69323;SDS011;56470;47.350;8.718;2022-10-17T04:46:23;6.28;;;2.42;;
69323;SDS011;56470;47.350;8.718;2022-10-17T04:48:48;5.13;;;2.50;;
69323;SDS011;56470;47.350;8.718;2022-10-17T04:51:15;6.50;;;2.03;;
69323;SDS011;56470;47.350;8.718;2022-10-17T04:53:42;7.25;;;2.20;;
69323;SDS011;56470;47.350;8.718;2022-10-17T04:56:15;5.93;;;2.30;;
69323;SDS011;56470;47.350;8.718;2022-10-17T04:58:42;5.60;;;2.30;;
69323;SDS011;56470;47.350;8.718;2022-10-17T05:01:10;5.35;;;2.30;;
69323;SDS011;56470;47.350;8.718;2022-10-17T05:03:38;4.43;;;2.33;;
69323;SDS011;56470;47.350;8.718;2022-10-17T05:06:37;8.07;;;2.58;;
69323;SDS011;56470;47.350;8.718;2022-10-17T05:08:57;7.30;;;2.40;;
69323;SDS011;56470;47.350;8.718;2022-10-17T05:11:25;7.80;;;2.20;;
69323;SDS011;56470;47.350;8.718;2022-10-17T05:13:52;5.23;;;2.00;;
69323;SDS011;56470;47.350;8.718;2022-10-17T05:16:19;8.40;;;2.58;;
69323;SDS011;56470;47.350;8.718;2022-10-17T05:18:49;8.18;;;2.40;;
69323;SDS011;56470;47.350;8.718;2022-10-17T05:21:15;5.82;;;2.75;;
69323;SDS011;56470;47.350;8.718;2022-10-17T05:23:41;6.37;;;2.70;;
69323;SDS011;56470;47.350;8.718;2022-10-17T05:26:06;7.97;;;3.00;;
69323;SDS011;56470;47.350;8.718;2022-10-17T05:28:32;5.40;;;2.43;;
69323;SDS011;56470;47.350;8.718;2022-10-17T05:31:01;7.25;;;2.35;;
69323;SDS011;56470;47.350;8.718;2022-10-17T05:33:29;7.53;;;2.72;;
69323;SDS011;56470;47.350;8.718;2022-10-17T05:35:55;4.70;;;2.50;;
69323;SDS011;56470;47.350;8.718;2022-10-17T05:38:20;8.33;;;2.77;;
69323;SDS011;56470;47.350;8.718;2022-10-17T05:40:45;8.87;;;2.53;;
69323;SDS011;56470;47.350;8.718;2022-10-17T05:43:11;6.93;;;2.78;;
69323;SDS011;56470;47.350;8.718;2022-10-17T05:45:36;7.47;;;2.80;;
69323;SDS011;56470;47.350;8.718;2022-10-17T05:48:02;6.67;;;3.03;;
69323;SDS011;56470;47.350;8.718;2022-10-17T05:50:27;8.70;;;2.90;;
69323;SDS011;56470;47.350;8.718;2022-10-17T05:52:53;7.17;;;2.57;;
69323;SDS011;56470;47.350;8.718;2022-10-17T05:55:19;6.72;;;2.67;;
69323;SDS011;56470;47.350;8.718;2022-10-17T05:57:44;6.23;;;2.90;;
69323;SDS011;56470;47.350;8.718;2022-10-17T06:00:10;7.00;;;3.10;;
69323;SDS011;56470;47.350;8.718;2022-10-17T06:02:36;11.10;;;3.25;;
69323;SDS011;56470;47.350;8.718;2022-10-17T06:05:01;8.93;;;3.23;;
69323;SDS011;56470;47.350;8.718;2022-10-17T06:07:26;8.90;;;3.03;;
69323;SDS011;56470;47.350;8.718;2022-10-17T06:09:51;9.57;;;4.00;;
69323;SDS011;56470;47.350;8.718;2022-10-17T06:12:17;9.63;;;2.80;;
69323;SDS011;56470;47.350;8.718;2022-10-17T06:14:42;7.43;;;2.80;;
69323;SDS011;56470;47.350;8.718;2022-10-17T06:17:07;10.67;;;3.30;;
69323;SDS011;56470;47.350;8.718;2022-10-17T06:19:33;8.70;;;3.38;;
69323;SDS011;56470;47.350;8.718;2022-10-17T06:21:59;9.93;;;3.90;;
69323;SDS011;56470;47.350;8.718;2022-10-17T06:24:24;8.40;;;3.45;;
69323;SDS011;56470;47.350;8.718;2022-10-17T06:26:50;7.43;;;3.30;;
69323;SDS011;56470;47.350;8.718;2022-10-17T06:29:15;9.47;;;3.50;;
69323;SDS011;56470;47.350;8.718;2022-10-17T06:31:41;7.35;;;3.40;;
69323;SDS011;56470;47.350;8.718;2022-10-17T06:34:06;8.30;;;3.53;;
69323;SDS011;56470;47.350;8.718;2022-10-17T06:36:31;5.63;;;2.90;;
69323;SDS011;56470;47.350;8.718;2022-10-17T06:38:57;7.20;;;3.03;;
69323;SDS011;56470;47.350;8.718;2022-10-17T06:41:22;7.47;;;3.20;;
69323;SDS011;56470;47.350;8.718;2022-10-17T06:43:47;6.53;;;2.90;;
69323;SDS011;56470;47.350;8.718;2022-10-17T06:46:14;6.53;;;3.13;;
69323;SDS011;56470;47.350;8.718;2022-10-17T06:48:40;7.15;;;2.63;;
69323;SDS011;56470;47.350;8.718;2022-10-17T06:51:05;6.70;;;3.83;;
69323;SDS011;56470;47.350;8.718;2022-10-17T06:53:33;11.30;;;3.97;;
69323;SDS011;56470;47.350;8.718;2022-10-17T06:55:59;6.68;;;2.60;;
69323;SDS011;56470;47.350;8.718;2022-10-17T06:58:31;9.97;;;2.70;;
69323;SDS011;56470;47.350;8.718;2022-10-17T07:01:07;5.03;;;1.90;;
69323;SDS011;56470;47.350;8.718;2022-10-17T07:03:34;8.15;;;2.53;;
69323;SDS011;56470;47.350;8.718;2022-10-17T07:05:59;6.67;;;2.70;;
69323;SDS011;56470;47.350;8.718;2022-10-17T07:08:25;6.90;;;3.00;;
69323;SDS011;56470;47.350;8.718;2022-10-17T07:10:51;8.10;;;3.20;;
69323;SDS011;56470;47.350;8.718;2022-10-17T07:13:17;9.32;;;2.97;;
69323;SDS011;56470;47.350;8.718;2022-10-17T07:15:43;9.80;;;4.20;;
69323;SDS011;56470;47.350;8.718;2022-10-17T07:18:08;7.90;;;3.40;;
69323;SDS011;56470;47.350;8.718;2022-10-17T07:20:34;7.67;;;3.37;;
69323;SDS011;56470;47.350;8.718;2022-10-17T07:22:59;12.05;;;2.97;;
69323;SDS011;56470;47.350;8.718;2022-10-17T07:25:24;6.90;;;3.00;;
69323;SDS011;56470;47.350;8.718;2022-10-17T07:27:50;6.27;;;2.80;;
69323;SDS011;56470;47.350;8.718;2022-10-17T07:30:17;7.35;;;3.30;;
69323;SDS011;56470;47.350;8.718;2022-10-17T07:32:43;10.47;;;3.53;;
69323;SDS011;56470;47.350;8.718;2022-10-17T07:35:09;7.60;;;2.78;;
69323;SDS011;56470;47.350;8.718;2022-10-17T07:37:35;5.70;;;3.13;;
69323;SDS011;56470;47.350;8.718;2022-10-17T07:40:02;8.73;;;2.60;;
69323;SDS011;56470;47.350;8.718;2022-10-17T07:42:28;8.20;;;3.25;;
69323;SDS011;56470;47.350;8.718;2022-10-17T07:44:54;10.53;;;2.97;;
69323;SDS011;56470;47.350;8.718;2022-10-17T07:47:19;6.88;;;3.17;;
69323;SDS011;56470;47.350;8.718;2022-10-17T07:49:44;7.67;;;2.97;;
69323;SDS011;56470;47.350;8.718;2022-10-17T07:52:10;5.60;;;3.27;;
69323;SDS011;56470;47.350;8.718;2022-10-17T07:54:36;9.48;;;3.33;;
69323;SDS011;56470;47.350;8.718;2022-10-17T07:57:02;9.07;;;3.70;;
69323;SDS011;56470;47.350;8.718;2022-10-17T07:59:27;10.43;;;4.03;;
69323;SDS011;56470;47.350;8.718;2022-10-17T08:01:56;8.80;;;4.37;;
69323;SDS011;56470;47.350;8.718;2022-10-17T08:04:21;10.23;;;4.32;;
69323;SDS011;56470;47.350;8.718;2022-10-17T08:06:47;10.02;;;4.50;;
69323;SDS011;56470;47.350;8.718;2022-10-17T08:09:13;7.50;;;4.20;;
69323;SDS011;56470;47.350;8.718;2022-10-17T08:11:39;7.55;;;3.63;;
69323;SDS011;56470;47.350;8.718;2022-10-17T08:14:04;8.70;;;3.20;;
69323;SDS011;56470;47.350;8.718;2022-10-17T08:16:29;13.07;;;4.40;;
69323;SDS011;56470;47.350;8.718;2022-10-17T08:18:55;6.93;;;3.03;;
69323;SDS011;56470;47.350;8.718;2022-10-17T08:21:20;7.73;;;3.40;;
69323;SDS011;56470;47.350;8.718;2022-10-17T08:23:45;6.78;;;3.28;;
69323;SDS011;56470;47.350;8.718;2022-10-17T08:26:11;8.70;;;2.23;;
69323;SDS011;56470;47.350;8.718;2022-10-17T08:28:37;6.97;;;2.70;;
69323;SDS011;56470;47.350;8.718;2022-10-17T08:31:08;5.40;;;2.23;;
69323;SDS011;56470;47.350;8.718;2022-10-17T08:33:34;6.50;;;2.35;;
69323;SDS011;56470;47.350;8.718;2022-10-17T08:36:00;6.70;;;2.70;;
69323;SDS011;56470;47.350;8.718;2022-10-17T08:38:28;6.72;;;2.60;;
69323;SDS011;56470;47.350;8.718;2022-10-17T08:40:55;6.53;;;2.42;;
69323;SDS011;56470;47.350;8.718;2022-10-17T08:43:42;4.33;;;2.30;;
69323;SDS011;56470;47.350;8.718;2022-10-17T08:46:15;6.30;;;2.83;;
69323;SDS011;56470;47.350;8.718;2022-10-17T08:48:41;4.80;;;2.00;;
69323;SDS011;56470;47.350;8.718;2022-10-17T08:51:25;6.63;;;2.50;;
69323;SDS011;56470;47.350;8.718;2022-10-17T08:54:03;4.45;;;2.20;;
69323;SDS011;56470;47.350;8.718;2022-10-17T08:56:49;4.60;;;2.40;;
69323;SDS011;56470;47.350;8.718;2022-10-17T08:59:17;4.28;;;2.35;;
69323;SDS011;56470;47.350;8.718;2022-10-17T09:18:29;7.23;;;3.33;;
69323;SDS011;56470;47.350;8.718;2022-10-17T09:21:03;4.40;;;2.67;;
69323;SDS011;56470;47.350;8.718;2022-10-17T09:23:48;4.88;;;2.38;;
69323;SDS011;56470;47.350;8.718;2022-10-17T09:26:16;4.27;;;1.77;;
69323;SDS011;56470;47.350;8.718;2022-10-17T09:28:49;3.60;;;1.88;;
69323;SDS011;56470;47.350;8.718;2022-10-17T09:31:24;3.37;;;1.70;;
69323;SDS011;56470;47.350;8.718;2022-10-17T09:33:56;7.30;;;2.40;;
69323;SDS011;56470;47.350;8.718;2022-10-17T09:36:34;3.90;;;1.92;;
69323;SDS011;56470;47.350;8.718;2022-10-17T09:39:06;4.10;;;2.20;;
69323;SDS011;56470;47.350;8.718;2022-10-17T09:41:41;4.78;;;1.92;;
69323;SDS011;56470;47.350;8.718;2022-10-17T09:44:24;4.10;;;1.90;;
69323;SDS011;56470;47.350;8.718;2022-10-17T09:49:48;5.40;;;2.08;;
69323;SDS011;56470;47.350;8.718;2022-10-17T09:52:33;4.88;;;2.20;;
69323;SDS011;56470;47.350;8.718;2022-10-17T09:55:04;6.35;;;2.33;;
69323;SDS011;56470;47.350;8.718;2022-10-17T10:00:32;5.97;;;2.03;;
69323;SDS011;56470;47.350;8.718;2022-10-17T10:03:12;5.63;;;2.28;;
69323;SDS011;56470;47.350;8.718;2022-10-17T10:05:38;7.00;;;2.20;;
69323;SDS011;56470;47.350;8.718;2022-10-17T10:08:10;4.63;;;2.08;;
69323;SDS011;56470;47.350;8.718;2022-10-17T10:10:38;3.70;;;2.00;;
69323;SDS011;56470;47.350;8.718;2022-10-17T10:15:39;5.18;;;2.13;;
69323;SDS011;56470;47.350;8.718;2022-10-17T10:18:47;4.95;;;2.45;;
69323;SDS011;56470;47.350;8.718;2022-10-17T10:23:30;4.57;;;2.23;;
69323;SDS011;56470;47.350;8.718;2022-10-17T10:25:57;4.38;;;2.05;;
69323;SDS011;56470;47.350;8.718;2022-10-17T10:28:29;5.13;;;1.87;;
69323;SDS011;56470;47.350;8.718;2022-10-17T10:30:57;4.68;;;2.25;;
69323;SDS011;56470;47.350;8.718;2022-10-17T10:33:27;5.63;;;2.28;;
69323;SDS011;56470;47.350;8.718;2022-10-17T10:35:55;9.75;;;2.58;;
69323;SDS011;56470;47.350;8.718;2022-10-17T10:38:25;4.75;;;2.70;;
69323;SDS011;56470;47.350;8.718;2022-10-17T10:40:51;4.07;;;2.10;;
69323;SDS011;56470;47.350;8.718;2022-10-17T10:46:00;3.78;;;2.17;;
69323;SDS011;56470;47.350;8.718;2022-10-17T10:51:04;6.00;;;2.30;;
69323;SDS011;56470;47.350;8.718;2022-10-17T10:53:44;6.45;;;2.03;;
69323;SDS011;56470;47.350;8.718;2022-10-17T11:06:45;3.97;;;2.00;;
69323;SDS011;56470;47.350;8.718;2022-10-17T11:09:15;4.88;;;2.25;;
69323;SDS011;56470;47.350;8.718;2022-10-17T11:11:48;4.45;;;1.88;;
69323;SDS011;56470;47.350;8.718;2022-10-17T11:14:31;6.90;;;2.10;;
69323;SDS011;56470;47.350;8.718;2022-10-17T11:17:05;5.17;;;2.20;;
69323;SDS011;56470;47.350;8.718;2022-10-17T11:19:41;4.43;;;2.20;;
69323;SDS011;56470;47.350;8.718;2022-10-17T11:22:14;5.63;;;2.70;;
69323;SDS011;56470;47.350;8.718;2022-10-17T11:24:47;4.78;;;2.10;;
69323;SDS011;56470;47.350;8.718;2022-10-17T11:27:21;3.72;;;1.92;;
69323;SDS011;56470;47.350;8.718;2022-10-17T11:29:48;5.07;;;2.50;;
69323;SDS011;56470;47.350;8.718;2022-10-17T11:32:15;5.85;;;2.53;;
69323;SDS011;56470;47.350;8.718;2022-10-17T11:35:04;4.85;;;2.70;;
69323;SDS011;56470;47.350;8.718;2022-10-17T11:37:39;4.82;;;2.30;;
69323;SDS011;56470;47.350;8.718;2022-10-17T11:40:15;5.07;;;2.00;;
69323;SDS011;56470;47.350;8.718;2022-10-17T11:42:49;5.65;;;2.17;;
69323;SDS011;56470;47.350;8.718;2022-10-17T11:45:19;5.22;;;2.40;;
69323;SDS011;56470;47.350;8.718;2022-10-17T11:47:49;5.88;;;2.63;;
69323;SDS011;56470;47.350;8.718;2022-10-17T11:50:21;5.05;;;2.40;;
69323;SDS011;56470;47.350;8.718;2022-10-17T11:52:51;5.67;;;2.37;;
69323;SDS011;56470;47.350;8.718;2022-10-17T11:55:22;5.90;;;2.45;;
69323;SDS011;56470;47.350;8.718;2022-10-17T12:00:51;6.80;;;2.40;;
69323;SDS011;56470;47.350;8.718;2022-10-17T12:13:45;4.85;;;2.60;;
69323;SDS011;56470;47.350;8.718;2022-10-17T12:18:47;4.77;;;2.00;;
69323;SDS011;56470;47.350;8.718;2022-10-17T12:21:15;5.47;;;2.60;;
69323;SDS011;56470;47.350;8.718;2022-10-17T12:23:40;6.47;;;2.30;;
69323;SDS011;56470;47.350;8.718;2022-10-17T12:26:19;5.90;;;2.50;;
69323;SDS011;56470;47.350;8.718;2022-10-17T12:28:50;9.73;;;2.72;;
69323;SDS011;56470;47.350;8.718;2022-10-17T12:36:55;7.23;;;2.80;;
69323;SDS011;56470;47.350;8.718;2022-10-17T12:46:45;4.78;;;2.20;;
69323;SDS011;56470;47.350;8.718;2022-10-17T12:52:26;4.93;;;2.30;;
69323;SDS011;56470;47.350;8.718;2022-10-17T12:54:56;5.43;;;2.50;;
69323;SDS011;56470;47.350;8.718;2022-10-17T13:00:13;5.72;;;2.45;;
69323;SDS011;56470;47.350;8.718;2022-10-17T13:02:40;7.00;;;2.47;;
69323;SDS011;56470;47.350;8.718;2022-10-17T13:05:07;4.82;;;2.50;;
69323;SDS011;56470;47.350;8.718;2022-10-17T13:07:39;5.43;;;2.70;;
69323;SDS011;56470;47.350;8.718;2022-10-17T13:10:07;5.38;;;2.80;;
69323;SDS011;56470;47.350;8.718;2022-10-17T13:12:43;5.13;;;2.10;;
69323;SDS011;56470;47.350;8.718;2022-10-17T13:15:10;7.03;;;2.17;;
69323;SDS011;56470;47.350;8.718;2022-10-17T13:17:41;9.63;;;3.00;;
69323;SDS011;56470;47.350;8.718;2022-10-17T13:20:16;7.45;;;2.25;;
69323;SDS011;56470;47.350;8.718;2022-10-17T13:22:44;8.17;;;2.73;;
69323;SDS011;56470;47.350;8.718;2022-10-17T13:25:13;5.55;;;2.80;;
69323;SDS011;56470;47.350;8.718;2022-10-17T13:27:40;6.13;;;2.47;;
69323;SDS011;56470;47.350;8.718;2022-10-17T13:30:24;5.97;;;3.35;;
69323;SDS011;56470;47.350;8.718;2022-10-17T13:32:51;4.20;;;2.70;;
69323;SDS011;56470;47.350;8.718;2022-10-17T13:35:22;6.72;;;2.83;;
69323;SDS011;56470;47.350;8.718;2022-10-17T13:37:51;7.85;;;2.80;;
69323;SDS011;56470;47.350;8.718;2022-10-17T13:40:18;5.22;;;2.70;;
69323;SDS011;56470;47.350;8.718;2022-10-17T13:42:45;5.72;;;2.75;;
69323;SDS011;56470;47.350;8.718;2022-10-17T13:45:16;7.70;;;3.47;;
69323;SDS011;56470;47.350;8.718;2022-10-17T13:47:46;6.35;;;3.40;;
69323;SDS011;56470;47.350;8.718;2022-10-17T13:50:26;6.00;;;2.93;;
69323;SDS011;56470;47.350;8.718;2022-10-17T13:55:37;5.50;;;2.25;;
69323;SDS011;56470;47.350;8.718;2022-10-17T13:58:14;7.00;;;2.70;;
69323;SDS011;56470;47.350;8.718;2022-10-17T14:00:41;5.95;;;2.83;;
69323;SDS011;56470;47.350;8.718;2022-10-17T14:03:07;5.47;;;2.92;;
69323;SDS011;56470;47.350;8.718;2022-10-17T14:05:32;7.60;;;3.43;;
69323;SDS011;56470;47.350;8.718;2022-10-17T14:08:00;4.67;;;2.73;;
69323;SDS011;56470;47.350;8.718;2022-10-17T14:10:35;5.57;;;2.50;;
69323;SDS011;56470;47.350;8.718;2022-10-17T14:13:03;5.63;;;2.65;;
69323;SDS011;56470;47.350;8.718;2022-10-17T14:15:32;6.25;;;2.50;;
69323;SDS011;56470;47.350;8.718;2022-10-17T14:18:02;4.57;;;2.50;;
69323;SDS011;56470;47.350;8.718;2022-10-17T14:20:31;4.90;;;2.53;;
69323;SDS011;56470;47.350;8.718;2022-10-17T14:22:58;7.63;;;2.65;;
69323;SDS011;56470;47.350;8.718;2022-10-17T14:25:25;6.55;;;2.90;;
69323;SDS011;56470;47.350;8.718;2022-10-17T14:27:52;4.20;;;2.25;;
69323;SDS011;56470;47.350;8.718;2022-10-17T14:32:50;3.70;;;1.90;;
69323;SDS011;56470;47.350;8.718;2022-10-17T14:35:20;4.93;;;2.22;;
69323;SDS011;56470;47.350;8.718;2022-10-17T14:37:46;5.32;;;2.30;;
69323;SDS011;56470;47.350;8.718;2022-10-17T14:40:17;6.20;;;2.53;;
69323;SDS011;56470;47.350;8.718;2022-10-17T14:42:44;4.53;;;2.50;;
69323;SDS011;56470;47.350;8.718;2022-10-17T14:45:13;5.07;;;2.38;;
69323;SDS011;56470;47.350;8.718;2022-10-17T14:47:51;4.53;;;2.58;;
69323;SDS011;56470;47.350;8.718;2022-10-17T14:50:24;6.72;;;2.60;;
69323;SDS011;56470;47.350;8.718;2022-10-17T14:55:27;5.05;;;2.45;;
69323;SDS011;56470;47.350;8.718;2022-10-17T14:57:54;6.55;;;2.65;;
69323;SDS011;56470;47.350;8.718;2022-10-17T15:00:20;8.07;;;2.57;;
69323;SDS011;56470;47.350;8.718;2022-10-17T15:02:47;6.00;;;2.72;;
69323;SDS011;56470;47.350;8.718;2022-10-17T15:05:14;7.07;;;3.08;;
69323;SDS011;56470;47.350;8.718;2022-10-17T15:07:40;4.63;;;2.40;;
69323;SDS011;56470;47.350;8.718;2022-10-17T15:10:06;5.20;;;2.00;;
69323;SDS011;56470;47.350;8.718;2022-10-17T15:12:47;5.35;;;2.42;;
69323;SDS011;56470;47.350;8.718;2022-10-17T15:15:12;6.27;;;2.60;;
69323;SDS011;56470;47.350;8.718;2022-10-17T15:17:37;5.35;;;2.58;;
69323;SDS011;56470;47.350;8.718;2022-10-17T15:20:05;6.10;;;2.70;;
69323;SDS011;56470;47.350;8.718;2022-10-17T15:22:38;6.43;;;2.55;;
69323;SDS011;56470;47.350;8.718;2022-10-17T15:25:03;5.90;;;2.47;;
69323;SDS011;56470;47.350;8.718;2022-10-17T15:27:29;8.33;;;2.23;;
69323;SDS011;56470;47.350;8.718;2022-10-17T15:29:56;6.75;;;3.25;;
69323;SDS011;56470;47.350;8.718;2022-10-17T15:32:22;5.82;;;2.30;;
69323;SDS011;56470;47.350;8.718;2022-10-17T15:34:47;4.23;;;2.50;;
69323;SDS011;56470;47.350;8.718;2022-10-17T15:37:19;4.97;;;2.70;;
69323;SDS011;56470;47.350;8.718;2022-10-17T15:39:49;6.45;;;2.50;;
69323;SDS011;56470;47.350;8.718;2022-10-17T15:42:18;5.10;;;2.45;;
69323;SDS011;56470;47.350;8.718;2022-10-17T15:44:44;6.07;;;2.70;;
69323;SDS011;56470;47.350;8.718;2022-10-17T15:47:18;6.00;;;2.95;;
69323;SDS011;56470;47.350;8.718;2022-10-17T15:49:53;6.67;;;2.40;;
69323;SDS011;56470;47.350;8.718;2022-10-17T15:52:19;6.68;;;2.65;;
69323;SDS011;56470;47.350;8.718;2022-10-17T15:54:45;5.50;;;2.65;;
69323;SDS011;56470;47.350;8.718;2022-10-17T15:57:32;5.60;;;2.50;;
69323;SDS011;56470;47.350;8.718;2022-10-17T15:59:58;4.72;;;2.58;;
69323;SDS011;56470;47.350;8.718;2022-10-17T16:02:24;4.60;;;2.50;;
69323;SDS011;56470;47.350;8.718;2022-10-17T16:04:50;6.30;;;2.58;;
69323;SDS011;56470;47.350;8.718;2022-10-17T16:07:16;7.50;;;3.38;;
69323;SDS011;56470;47.350;8.718;2022-10-17T16:09:42;6.43;;;2.87;;
69323;SDS011;56470;47.350;8.718;2022-10-17T16:12:11;5.83;;;2.60;;
69323;SDS011;56470;47.350;8.718;2022-10-17T16:14:40;6.13;;;2.88;;
69323;SDS011;56470;47.350;8.718;2022-10-17T16:17:07;5.23;;;2.97;;
69323;SDS011;56470;47.350;8.718;2022-10-17T16:19:37;8.00;;;3.35;;
69323;SDS011;56470;47.350;8.718;2022-10-17T16:22:02;7.87;;;3.07;;
69323;SDS011;56470;47.350;8.718;2022-10-17T16:24:30;8.70;;;3.42;;
69323;SDS011;56470;47.350;8.718;2022-10-17T16:26:55;5.73;;;3.27;;
69323;SDS011;56470;47.350;8.718;2022-10-17T16:29:20;8.50;;;3.17;;
69323;SDS011;56470;47.350;8.718;2022-10-17T16:31:46;8.35;;;3.88;;
69323;SDS011;56470;47.350;8.718;2022-10-17T16:34:12;5.33;;;3.17;;
69323;SDS011;56470;47.350;8.718;2022-10-17T16:36:38;9.67;;;2.70;;
69323;SDS011;56470;47.350;8.718;2022-10-17T16:39:04;8.30;;;3.72;;
69323;SDS011;56470;47.350;8.718;2022-10-17T16:41:31;6.22;;;3.78;;
69323;SDS011;56470;47.350;8.718;2022-10-17T16:44:00;9.20;;;3.83;;
69323;SDS011;56470;47.350;8.718;2022-10-17T16:46:27;9.07;;;3.72;;
69323;SDS011;56470;47.350;8.718;2022-10-17T16:48:54;8.60;;;3.57;;
69323;SDS011;56470;47.350;8.718;2022-10-17T16:51:20;8.88;;;3.70;;
69323;SDS011;56470;47.350;8.718;2022-10-17T16:53:46;8.65;;;4.45;;
69323;SDS011;56470;47.350;8.718;2022-10-17T16:56:14;9.40;;;3.83;;
69323;SDS011;56470;47.350;8.718;2022-10-17T16:58:41;7.60;;;4.35;;